VEAT/IXA METAR and TAF weather

Enter ICAO airport designator
Station Type Date Time Source
VEAT METAR 2022/01/29 11:00 UTC NOAA

VEAT 291100Z 00000KT 3500 HZ NSC 19/11 Q1012 BECMG 3000 HZ


Station Type Date Time Source
VEAT Decoded METAR 2022/01/29 11:00 UTC NOAA

Agartala, India (VEAT) 23-53N 091-15E 16M
Jan 29, 2022 - 06:00 AM EST / 2022.01.29 1100 UTC
Wind: Calm:0
Visibility: 2 mile(s):0
Weather: haze
Temperature: 66 F (19 C)
Dew Point: 51 F (11 C)
Relative Humidity: 59%
Pressure (altimeter): 29.88 in. Hg (1012 hPa)
ob: VEAT 291100Z 00000KT 3500 HZ NSC 19/11 Q1012 BECMG 3000 HZ
cycle: 11

Station Type Date Time Source
VEAT TAF 2021/09/24 12:00 UTC NOAA

TAF VEAT 241100Z 2412/2421 00000KT 5000 BR FEW018 SCT100=

Example: see airport list